createdAt,value
2022-10-21T00:01:57.960Z,83.15
2022-10-21T00:04:34.462Z,83.18
2022-10-21T00:07:10.148Z,83.22
2022-10-21T00:09:45.976Z,83.24
2022-10-21T00:12:21.724Z,83.28
2022-10-21T00:14:57.866Z,83.19
2022-10-21T00:17:35.410Z,83.15
2022-10-21T00:20:15.225Z,83.13
2022-10-21T00:22:51.211Z,82.94
2022-10-21T00:25:27.011Z,82.92
2022-10-21T00:28:03.120Z,82.85
2022-10-21T00:30:43.197Z,82.71
2022-10-21T00:33:19.245Z,82.69
2022-10-21T00:36:02.566Z,82.73
2022-10-21T00:38:39.570Z,82.80
2022-10-21T00:41:17.539Z,82.72
2022-10-21T00:44:06.905Z,82.66
2022-10-21T00:46:49.606Z,82.91
2022-10-21T00:49:33.564Z,83.10
2022-10-21T00:52:14.596Z,83.16
2022-10-21T00:54:53.059Z,83.15
2022-10-21T00:57:32.170Z,83.30
2022-10-21T01:00:11.181Z,83.14
2022-10-21T01:02:47.489Z,83.10
2022-10-21T01:05:24.348Z,83.10
2022-10-21T01:08:00.548Z,83.30
2022-10-21T01:10:38.737Z,83.77
2022-10-21T01:13:31.476Z,84.18
2022-10-21T01:16:22.144Z,84.41
2022-10-21T01:19:10.261Z,84.87
2022-10-21T01:21:55.001Z,85.13
2022-10-21T01:24:58.034Z,85.23
2022-10-21T01:27:55.258Z,85.28
2022-10-21T01:30:53.550Z,85.12
2022-10-21T01:33:53.014Z,84.92
2022-10-21T01:36:37.914Z,84.80
2022-10-21T01:39:28.478Z,84.75
2022-10-21T01:42:18.018Z,84.81
2022-10-21T01:45:02.486Z,84.95
2022-10-21T01:47:46.082Z,84.72
2022-10-21T01:50:27.727Z,84.82
2022-10-21T01:53:08.748Z,84.68
2022-10-21T01:55:46.883Z,84.44
2022-10-21T01:58:29.049Z,84.35
2022-10-21T02:01:09.147Z,84.22
2022-10-21T02:03:52.715Z,84.15
2022-10-21T02:06:28.638Z,84.20
2022-10-21T02:09:04.572Z,84.20
2022-10-21T02:11:46.276Z,84.20
2022-10-21T02:14:30.687Z,84.19
2022-10-21T02:17:08.497Z,84.17
2022-10-21T02:19:44.553Z,84.08
2022-10-21T02:22:26.045Z,84.10
2022-10-21T02:25:09.721Z,84.06
2022-10-21T02:27:46.066Z,84.11
2022-10-21T02:30:22.686Z,84.17
2022-10-21T02:33:07.503Z,84.21
2022-10-21T02:35:58.718Z,84.12
2022-10-21T02:38:42.723Z,84.15
2022-10-21T02:41:26.116Z,84.27
2022-10-21T02:44:05.305Z,84.14
2022-10-21T02:46:45.254Z,84.20
2022-10-21T02:49:21.203Z,84.32
2022-10-21T02:51:57.212Z,84.15
2022-10-21T02:54:33.117Z,84.21
2022-10-21T02:57:08.914Z,84.16
2022-10-21T02:59:44.750Z,84.07
2022-10-21T03:02:20.558Z,83.94
2022-10-21T03:04:56.400Z,83.93
2022-10-21T03:07:32.292Z,84.17
2022-10-21T03:10:09.503Z,84.14
2022-10-21T03:12:45.345Z,84.00
2022-10-21T03:15:21.589Z,84.14
2022-10-21T03:17:57.332Z,84.16
2022-10-21T03:20:33.193Z,84.20
2022-10-21T03:23:09.071Z,84.23
2022-10-21T03:25:44.943Z,84.23
2022-10-21T03:28:20.947Z,84.31
2022-10-21T03:30:57.228Z,84.16
2022-10-21T03:33:33.235Z,84.21
2022-10-21T03:36:10.454Z,84.18
2022-10-21T03:38:46.324Z,84.26
2022-10-21T03:41:22.178Z,84.45
2022-10-21T03:43:58.114Z,84.66
2022-10-21T03:46:34.093Z,84.96
2022-10-21T03:49:15.555Z,84.86
2022-10-21T03:51:56.197Z,84.70
2022-10-21T03:54:32.028Z,84.63
2022-10-21T03:57:08.243Z,84.50
2022-10-21T03:59:44.109Z,84.47
2022-10-21T04:02:19.827Z,84.22
2022-10-21T04:04:55.889Z,84.29
2022-10-21T04:07:31.645Z,84.20
2022-10-21T04:10:08.953Z,84.15
2022-10-21T04:12:44.814Z,84.04
2022-10-21T04:15:21.132Z,84.00
2022-10-21T04:17:56.981Z,83.92
2022-10-21T04:20:33.046Z,84.00
2022-10-21T04:23:09.231Z,84.01
2022-10-21T04:25:47.895Z,84.22
2022-10-21T04:28:23.727Z,84.33
2022-10-21T04:30:59.778Z,84.10
2022-10-21T04:33:35.744Z,84.14
2022-10-21T04:36:12.962Z,84.14
2022-10-21T04:38:48.793Z,84.27
2022-10-21T04:41:24.782Z,84.21
2022-10-21T04:44:00.593Z,84.23
2022-10-21T04:46:36.771Z,84.13
2022-10-21T04:49:12.556Z,84.16
2022-10-21T04:51:48.447Z,84.17
2022-10-21T04:54:24.372Z,84.17
2022-10-21T04:57:00.143Z,84.14
2022-10-21T04:59:35.965Z,84.32
2022-10-21T05:02:11.673Z,84.27
2022-10-21T05:04:47.514Z,84.19
2022-10-21T05:07:23.176Z,84.19
2022-10-21T05:09:59.180Z,84.20
2022-10-21T05:15:14.695Z,84.07
2022-10-21T05:17:50.391Z,84.24
2022-10-21T05:20:26.270Z,84.22
2022-10-21T05:23:02.194Z,84.03
2022-10-21T05:25:38.186Z,84.12
2022-10-21T05:28:14.088Z,84.31
2022-10-21T05:30:50.243Z,84.39
2022-10-21T05:33:26.305Z,84.32
2022-10-21T05:36:07.977Z,84.29
2022-10-21T05:38:44.077Z,84.30
2022-10-21T05:41:19.895Z,84.36
2022-10-21T05:43:55.551Z,84.42
2022-10-21T05:46:31.614Z,84.32
2022-10-21T05:49:07.751Z,84.48
2022-10-21T05:51:44.945Z,84.49
2022-10-21T05:54:20.799Z,84.67
2022-10-21T05:56:59.572Z,84.76
2022-10-21T05:59:35.260Z,84.74
2022-10-21T06:02:12.055Z,84.69
2022-10-21T06:04:47.833Z,84.68
2022-10-21T06:07:24.159Z,84.70
2022-10-21T06:10:00.031Z,84.75
2022-10-21T06:12:35.709Z,84.80
2022-10-21T06:15:13.649Z,84.83
2022-10-21T06:17:49.330Z,84.65
2022-10-21T06:20:25.420Z,84.43
2022-10-21T06:23:03.186Z,84.30
2022-10-21T06:25:39.066Z,83.87
2022-10-21T06:28:15.037Z,83.32
2022-10-21T06:30:51.229Z,82.96
2022-10-21T06:33:27.906Z,82.78
2022-10-21T06:36:03.896Z,82.45
2022-10-21T06:38:40.260Z,82.46
2022-10-21T06:41:18.830Z,82.21
2022-10-21T06:43:55.069Z,81.84
2022-10-21T06:46:30.998Z,81.82
2022-10-21T06:49:07.414Z,81.58
2022-10-21T06:51:43.232Z,81.35
2022-10-21T06:54:19.052Z,81.43
2022-10-21T06:56:55.360Z,80.89
2022-10-21T06:59:31.523Z,80.73
2022-10-21T07:02:07.442Z,80.58
2022-10-21T07:04:45.571Z,80.07
2022-10-21T07:07:21.640Z,79.95
2022-10-21T07:09:57.948Z,79.66
2022-10-21T07:12:34.960Z,79.39
2022-10-21T07:15:13.327Z,79.61
2022-10-21T07:17:49.160Z,79.51
2022-10-21T07:20:25.476Z,79.43
2022-10-21T07:23:01.275Z,79.43
2022-10-21T07:25:37.341Z,79.43
2022-10-21T07:28:13.744Z,79.01
2022-10-21T07:30:51.086Z,78.98
2022-10-21T07:33:27.285Z,79.10
2022-10-21T07:36:13.480Z,79.04
2022-10-21T07:38:50.521Z,78.62
2022-10-21T07:41:29.502Z,78.90
2022-10-21T07:44:06.638Z,78.87
2022-10-21T07:46:44.208Z,78.87
2022-10-21T07:49:22.440Z,78.50
2022-10-21T07:51:58.267Z,77.55
2022-10-21T07:54:34.110Z,77.55
2022-10-21T07:57:09.796Z,76.70
2022-10-21T07:59:45.660Z,74.55
2022-10-21T08:02:21.502Z,73.82
2022-10-21T08:04:59.845Z,73.98
2022-10-21T08:07:36.687Z,73.28
2022-10-21T08:10:13.943Z,73.10
2022-10-21T08:12:49.771Z,72.72
2022-10-21T08:15:25.470Z,72.14
2022-10-21T08:18:01.256Z,71.87
2022-10-21T08:20:39.198Z,71.70
2022-10-21T08:23:17.369Z,71.31
2022-10-21T08:26:00.821Z,71.56
2022-10-21T08:28:37.030Z,70.63
2022-10-21T08:31:17.214Z,70.34
2022-10-21T08:33:53.855Z,70.56
2022-10-21T08:36:30.501Z,69.85
2022-10-21T08:39:07.085Z,69.67
2022-10-21T08:42:06.149Z,69.23
2022-10-21T08:45:00.863Z,69.26
2022-10-21T08:47:46.191Z,69.45
2022-10-21T08:50:27.158Z,69.20
2022-10-21T08:53:13.333Z,68.75
2022-10-21T08:55:50.278Z,68.71
2022-10-21T08:58:27.876Z,68.71
2022-10-21T09:01:18.656Z,68.62
2022-10-21T09:04:10.452Z,68.82
2022-10-21T09:06:54.835Z,68.00
2022-10-21T09:09:40.953Z,67.66
2022-10-21T09:12:30.783Z,67.74
2022-10-21T09:15:34.289Z,66.71
2022-10-21T09:18:34.716Z,66.84
2022-10-21T09:21:26.378Z,66.76
2022-10-21T09:24:12.871Z,67.14
2022-10-21T09:26:53.372Z,66.95
2022-10-21T09:29:37.810Z,66.42
2022-10-21T09:32:24.147Z,66.50
2022-10-21T09:35:13.458Z,66.14
2022-10-21T09:37:55.141Z,65.76
2022-10-21T09:40:34.062Z,65.62
2022-10-21T09:43:18.857Z,65.69
2022-10-21T09:45:55.196Z,65.18
2022-10-21T09:49:08.215Z,65.36
2022-10-21T09:51:42.783Z,66.01
2022-10-21T09:54:24.461Z,66.31
2022-10-21T09:57:13.269Z,66.30
2022-10-21T10:00:02.421Z,65.57
2022-10-21T10:02:50.284Z,65.71
2022-10-21T10:05:48.166Z,65.74
2022-10-21T10:08:44.683Z,66.00
2022-10-21T10:11:22.981Z,65.56
2022-10-21T10:13:58.804Z,65.27
2022-10-21T10:16:35.894Z,65.37
2022-10-21T10:19:23.811Z,65.02
2022-10-21T10:22:19.183Z,65.05
2022-10-21T10:24:55.261Z,65.15
2022-10-21T10:27:31.078Z,65.40
2022-10-21T10:30:16.908Z,64.86
2022-10-21T10:32:57.145Z,64.41
2022-10-21T10:35:38.242Z,64.70
2022-10-21T10:38:29.880Z,63.93
2022-10-21T10:41:15.224Z,63.67
2022-10-21T10:43:55.457Z,64.11
2022-10-21T10:46:36.168Z,64.52
2022-10-21T10:49:24.679Z,64.58
2022-10-21T10:52:24.629Z,64.06
2022-10-21T10:55:22.957Z,63.82
2022-10-21T10:58:12.477Z,63.72
2022-10-21T11:00:56.848Z,63.58
2022-10-21T11:03:46.264Z,63.71
2022-10-21T11:06:37.801Z,63.68
2022-10-21T11:09:13.864Z,63.32
2022-10-21T11:11:55.850Z,63.88
2022-10-21T11:14:31.758Z,63.45
2022-10-21T11:17:17.534Z,63.14
2022-10-21T11:20:07.889Z,63.15
2022-10-21T11:22:58.255Z,62.74
2022-10-21T11:25:43.896Z,63.18
2022-10-21T11:28:31.479Z,63.13
2022-10-21T11:31:25.077Z,63.34
2022-10-21T11:34:15.018Z,62.99
2022-10-21T11:37:06.554Z,63.36
2022-10-21T11:39:55.357Z,63.42
2022-10-21T11:42:40.573Z,63.51
2022-10-21T11:45:41.010Z,63.61
2022-10-21T11:48:45.691Z,63.60
2022-10-21T11:51:40.509Z,63.77
2022-10-21T11:55:10.755Z,64.35
2022-10-21T11:58:04.592Z,64.39
2022-10-21T12:00:54.494Z,64.43
2022-10-21T12:04:10.273Z,64.56
2022-10-21T12:07:00.165Z,64.60
2022-10-21T12:09:44.284Z,64.89
2022-10-21T12:12:28.136Z,65.01
2022-10-21T12:15:13.509Z,64.85
2022-10-21T12:17:55.681Z,65.00
2022-10-21T12:20:32.019Z,65.08
2022-10-21T12:23:12.173Z,65.15
2022-10-21T12:26:08.293Z,65.18
2022-10-21T12:28:54.854Z,65.39
2022-10-21T12:31:50.347Z,65.45
2022-10-21T12:34:27.650Z,65.49
2022-10-21T12:37:03.491Z,65.34
2022-10-21T12:40:12.904Z,65.30
2022-10-21T12:43:05.707Z,65.31
2022-10-21T12:45:43.467Z,65.03
2022-10-21T12:48:39.282Z,64.99
2022-10-21T12:51:29.112Z,64.71
2022-10-21T12:54:18.942Z,64.65
2022-10-21T12:57:03.972Z,64.12
2022-10-21T12:59:43.950Z,64.25
2022-10-21T13:02:32.742Z,63.63
2022-10-21T13:05:09.008Z,62.33
2022-10-21T13:08:28.399Z,62.21
2022-10-21T13:11:40.778Z,61.63
2022-10-21T13:14:44.618Z,61.46
2022-10-21T13:17:55.228Z,60.92
2022-10-21T13:21:00.778Z,61.09
2022-10-21T13:23:55.487Z,61.03
2022-10-21T13:26:32.571Z,61.03
2022-10-21T13:29:51.481Z,60.00
2022-10-21T13:32:34.366Z,60.30
2022-10-21T13:35:37.048Z,60.21
2022-10-21T13:38:29.332Z,59.39
2022-10-21T13:41:24.890Z,59.00
2022-10-21T13:44:05.670Z,59.05
2022-10-21T13:46:44.365Z,59.23
2022-10-21T13:49:34.153Z,58.90
2022-10-21T13:52:14.281Z,58.73
2022-10-21T13:54:59.078Z,58.82
2022-10-21T13:57:40.374Z,59.43
2022-10-21T14:00:28.017Z,59.02
2022-10-21T14:03:15.330Z,58.90
2022-10-21T14:06:00.027Z,58.76
2022-10-21T14:08:42.639Z,59.31
2022-10-21T14:11:24.516Z,59.23
2022-10-21T14:14:02.371Z,59.11
2022-10-21T14:16:43.644Z,59.11
2022-10-21T14:19:27.278Z,59.10
2022-10-21T14:24:49.877Z,59.57
2022-10-21T14:27:31.437Z,59.74
2022-10-21T14:30:19.262Z,60.17
2022-10-21T14:32:57.189Z,60.48
2022-10-21T14:35:34.476Z,60.46
2022-10-21T14:38:36.826Z,60.65
2022-10-21T14:41:21.531Z,60.85
2022-10-21T14:44:05.958Z,61.08
2022-10-21T14:46:51.827Z,61.14
2022-10-21T14:49:32.042Z,61.27
2022-10-21T14:52:20.136Z,61.53
2022-10-21T14:55:03.159Z,61.60
2022-10-21T14:57:48.902Z,61.81
2022-10-21T15:00:34.827Z,61.85
2022-10-21T15:03:12.599Z,61.90
2022-10-21T15:05:49.995Z,62.00
2022-10-21T15:08:33.965Z,62.54
2022-10-21T15:11:35.931Z,63.09
2022-10-21T15:14:34.880Z,63.10
2022-10-21T15:17:18.808Z,63.20
2022-10-21T15:19:55.911Z,63.17
2022-10-21T15:22:38.309Z,64.04
2022-10-21T15:25:20.096Z,65.02
2022-10-21T15:28:00.295Z,65.42
2022-10-21T15:30:36.721Z,65.64
2022-10-21T15:33:17.296Z,65.87
2022-10-21T15:36:08.700Z,66.07
2022-10-21T15:38:46.973Z,66.20
2022-10-21T15:41:26.681Z,66.34
2022-10-21T15:44:14.256Z,66.59
2022-10-21T15:46:57.783Z,66.85
2022-10-21T15:49:38.857Z,67.04
2022-10-21T15:52:15.384Z,67.05
2022-10-21T15:54:51.648Z,67.23
2022-10-21T15:57:27.664Z,67.30
2022-10-21T16:00:03.714Z,67.29
2022-10-21T16:02:41.848Z,67.39
2022-10-21T16:05:19.667Z,67.41
2022-10-21T16:07:55.911Z,67.63
2022-10-21T16:10:36.569Z,67.88
2022-10-21T16:13:12.451Z,67.70
2022-10-21T16:15:48.505Z,67.92
2022-10-21T16:18:24.262Z,68.02
2022-10-21T16:21:00.117Z,68.55
2022-10-21T16:23:35.968Z,68.86
2022-10-21T16:26:23.302Z,68.76
2022-10-21T16:29:00.802Z,68.77
2022-10-21T16:31:36.888Z,69.07
2022-10-21T16:34:12.895Z,69.01
2022-10-21T16:36:49.290Z,69.29
2022-10-21T16:39:26.621Z,69.80
2022-10-21T16:42:03.309Z,69.94
2022-10-21T16:44:41.942Z,70.03
2022-10-21T16:50:10.853Z,71.02
2022-10-21T16:52:49.767Z,70.85
2022-10-21T16:55:28.113Z,70.83
2022-10-21T16:58:03.896Z,71.02
2022-10-21T17:00:41.384Z,70.99
2022-10-21T17:03:17.904Z,71.18
2022-10-21T17:05:53.799Z,71.70
2022-10-21T17:08:29.769Z,71.70
2022-10-21T17:11:07.888Z,71.94
2022-10-21T17:13:44.545Z,71.97
2022-10-21T17:16:21.329Z,72.25
2022-10-21T17:18:57.415Z,72.52
2022-10-21T17:21:35.529Z,72.62
2022-10-21T17:24:14.950Z,72.35
2022-10-21T17:26:50.800Z,72.35
2022-10-21T17:29:26.674Z,72.44
2022-10-21T17:32:02.741Z,72.64
2022-10-21T17:34:41.160Z,72.93
2022-10-21T17:37:17.096Z,73.08
2022-10-21T17:39:52.995Z,73.30
2022-10-21T17:42:28.886Z,73.22
2022-10-21T17:45:05.067Z,73.22
2022-10-21T17:47:41.023Z,73.31
2022-10-21T17:50:23.542Z,73.49
2022-10-21T17:53:00.206Z,73.42
2022-10-21T17:55:36.112Z,73.68
2022-10-21T17:58:12.037Z,73.65
2022-10-21T18:00:47.827Z,73.78
2022-10-21T18:03:24.026Z,73.99
2022-10-21T18:06:00.721Z,74.10
2022-10-21T18:08:36.959Z,74.31
2022-10-21T18:11:16.314Z,74.45
2022-10-21T18:13:55.149Z,74.60
2022-10-21T18:16:32.252Z,74.75
2022-10-21T18:19:08.108Z,74.91
2022-10-21T18:21:44.169Z,74.88
2022-10-21T18:24:19.972Z,75.03
2022-10-21T18:26:56.378Z,74.98
2022-10-21T18:29:32.419Z,75.05
2022-10-21T18:32:12.581Z,75.30
2022-10-21T18:34:51.080Z,75.51
2022-10-21T18:37:26.953Z,75.60
2022-10-21T18:40:04.710Z,75.64
2022-10-21T18:42:40.700Z,75.71
2022-10-21T18:45:17.052Z,75.73
2022-10-21T18:47:54.358Z,75.93
2022-10-21T18:50:30.253Z,76.12
2022-10-21T18:53:06.341Z,76.29
2022-10-21T18:55:46.848Z,76.32
2022-10-21T18:58:22.748Z,76.48
2022-10-21T19:00:58.752Z,76.50
2022-10-21T19:03:37.200Z,76.50
2022-10-21T19:06:39.159Z,76.51
2022-10-21T19:09:20.747Z,76.59
2022-10-21T19:12:03.000Z,76.60
2022-10-21T19:14:38.823Z,76.80
2022-10-21T19:17:15.550Z,77.00
2022-10-21T19:19:52.035Z,76.92
2022-10-21T19:22:28.093Z,77.07
2022-10-21T19:25:08.127Z,77.13
2022-10-21T19:27:44.028Z,77.08
2022-10-21T19:30:21.077Z,77.10
2022-10-21T19:33:00.341Z,77.11
2022-10-21T19:35:37.681Z,77.10
2022-10-21T19:38:20.913Z,77.13
2022-10-21T19:41:17.873Z,77.26
2022-10-21T19:43:58.518Z,77.36
2022-10-21T19:46:39.905Z,77.32
2022-10-21T19:49:21.026Z,77.30
2022-10-21T19:51:57.912Z,77.38
2022-10-21T19:54:33.954Z,77.30
2022-10-21T19:57:09.963Z,77.33
2022-10-21T19:59:46.049Z,77.65
2022-10-21T20:02:22.430Z,77.77
2022-10-21T20:04:58.690Z,77.92
2022-10-21T20:07:39.229Z,78.00
2022-10-21T20:10:16.103Z,78.07
2022-10-21T20:12:55.324Z,78.21
2022-10-21T20:15:31.496Z,78.37
2022-10-21T20:18:09.232Z,78.50
2022-10-21T20:20:47.957Z,78.66
2022-10-21T20:23:23.825Z,78.81
2022-10-21T20:26:02.169Z,78.68
2022-10-21T20:28:38.778Z,78.67
2022-10-21T20:31:16.990Z,78.68
2022-10-21T20:33:56.626Z,78.70
2022-10-21T20:36:34.483Z,78.72
2022-10-21T20:39:11.318Z,78.99
2022-10-21T20:41:47.753Z,79.20
2022-10-21T20:44:23.526Z,79.16
2022-10-21T20:46:59.432Z,79.02
2022-10-21T20:49:35.746Z,79.09
2022-10-21T20:52:11.927Z,78.97
2022-10-21T20:54:48.066Z,78.88
2022-10-21T20:57:24.097Z,78.81
2022-10-21T21:00:00.023Z,79.03
2022-10-21T21:02:37.139Z,79.29
2022-10-21T21:05:16.048Z,79.45
2022-10-21T21:07:51.769Z,79.53
2022-10-21T21:10:27.804Z,79.52
2022-10-21T21:13:03.709Z,79.59
2022-10-21T21:15:39.542Z,79.63
2022-10-21T21:18:15.553Z,79.75
2022-10-21T21:20:51.753Z,79.76
2022-10-21T21:23:27.905Z,79.77
2022-10-21T21:26:12.207Z,79.80
2022-10-21T21:28:50.767Z,79.80
2022-10-21T21:31:30.164Z,79.90
2022-10-21T21:34:06.555Z,80.06
2022-10-21T21:36:42.415Z,80.29
2022-10-21T21:39:18.150Z,80.49
2022-10-21T21:41:54.063Z,80.51
2022-10-21T21:44:30.117Z,80.51
2022-10-21T21:47:06.045Z,80.58
2022-10-21T21:49:41.883Z,80.65
2022-10-21T21:52:17.712Z,80.70
2022-10-21T21:54:55.343Z,80.70
2022-10-21T21:57:31.285Z,80.73
2022-10-21T22:00:08.772Z,80.70
2022-10-21T22:02:45.697Z,80.70
2022-10-21T22:05:26.157Z,80.70
2022-10-21T22:08:03.709Z,80.62
2022-10-21T22:10:39.797Z,80.69
2022-10-21T22:13:16.077Z,80.75
2022-10-21T22:15:52.033Z,80.79
2022-10-21T22:18:27.921Z,80.78
2022-10-21T22:21:08.042Z,80.80
2022-10-21T22:23:45.293Z,80.92
2022-10-21T22:26:26.839Z,80.91
2022-10-21T22:29:02.879Z,80.92
2022-10-21T22:31:38.715Z,81.00
2022-10-21T22:34:14.666Z,81.00
2022-10-21T22:36:50.663Z,81.08
2022-10-21T22:39:26.609Z,81.07
2022-10-21T22:42:02.409Z,81.10
2022-10-21T22:44:38.230Z,81.35
2022-10-21T22:47:14.215Z,81.55
2022-10-21T22:49:50.067Z,81.56
2022-10-21T22:52:25.734Z,81.60
2022-10-21T22:55:01.799Z,81.58
2022-10-21T22:57:37.656Z,81.56
2022-10-21T23:00:16.832Z,81.63
2022-10-21T23:02:52.744Z,81.69
2022-10-21T23:05:28.674Z,81.70
2022-10-21T23:08:04.563Z,81.63
2022-10-21T23:10:40.727Z,81.61
2022-10-21T23:13:16.868Z,81.62
2022-10-21T23:15:52.809Z,81.64
2022-10-21T23:18:28.869Z,81.80
2022-10-21T23:21:05.005Z,82.00
2022-10-21T23:23:41.177Z,82.06
2022-10-21T23:26:17.044Z,82.16
2022-10-21T23:28:53.002Z,82.29
2022-10-21T23:31:28.783Z,82.33
2022-10-21T23:34:06.121Z,82.34
2022-10-21T23:36:42.076Z,82.50
2022-10-21T23:39:18.162Z,82.49
2022-10-21T23:41:54.075Z,82.50
2022-10-21T23:44:29.951Z,82.55
2022-10-21T23:47:05.977Z,82.63
2022-10-21T23:49:41.721Z,82.74
2022-10-21T23:52:17.804Z,82.86
2022-10-21T23:54:53.593Z,82.88
2022-10-21T23:57:29.517Z,83.00
